Time;durP1;ratioP1;P1;durP2;ratioP2;P2;SDS_P1;SDS_P2;PMS_P1;PMS_P2;Temp;Humidity;BMP_temperature;BMP_pressure;BME280_temperature;BME280_humidity;BME280_pressure;Samples;Min_cycle;Max_cycle;Signal;HPM_P1;HPM_P2
2022/09/29 00:01:07;;;;;;;1.17;0.40;;;;;;;9.87;97.12;94034.63;4382639;32;20263;-68
2022/09/29 00:03:36;;;;;;;0.10;0.10;;;;;;;9.94;96.91;94029.59;4396879;32;20218;-67
2022/09/29 00:06:01;;;;;;;1.20;0.63;;;;;;;9.87;96.53;94029.31;4364672;32;20184;-68
2022/09/29 00:08:28;;;;;;;0.20;0.20;;;;;;;9.97;96.59;94036.91;4356776;32;20196;-68
2022/09/29 00:10:56;;;;;;;0.10;0.10;;;;;;;10.02;96.16;94035.94;4373820;32;20200;-68
2022/09/29 00:13:21;;;;;;;0.20;0.20;;;;;;;9.96;96.66;94038.00;4366167;32;20197;-68
2022/09/29 00:16:01;;;;;;;0.33;0.33;;;;;;;9.75;97.19;94034.53;4386558;32;20176;-68
2022/09/29 00:18:30;;;;;;;0.17;0.17;;;;;;;9.90;97.32;94034.75;4393432;32;20192;-68
2022/09/29 00:21:01;;;;;;;0.00;0.00;;;;;;;9.85;97.04;94031.53;4354720;32;20265;-68
2022/09/29 00:23:28;;;;;;;0.10;0.10;;;;;;;9.83;96.92;94031.84;4397588;32;20188;-68
2022/09/29 00:26:10;;;;;;;0.33;0.33;;;;;;;9.88;96.43;94039.59;4394528;32;20239;-68
2022/09/29 00:28:39;;;;;;;0.20;0.20;;;;;;;10.02;96.21;94039.34;4359549;32;20188;-68
2022/09/29 00:31:06;;;;;;;0.00;0.00;;;;;;;9.89;96.12;94038.50;4352373;32;20192;-67
2022/09/29 00:33:34;;;;;;;0.00;0.00;;;;;;;9.70;97.70;94043.44;4386571;32;20181;-68
2022/09/29 00:36:04;;;;;;;0.30;0.30;;;;;;;9.74;97.81;94040.94;4390054;32;20271;-67
2022/09/29 00:38:33;;;;;;;0.40;0.40;;;;;;;9.80;97.36;94032.47;4396303;32;20267;-68
2022/09/29 00:41:00;;;;;;;0.20;0.20;;;;;;;9.86;96.63;94028.56;4400900;32;20197;-68
2022/09/29 00:44:19;;;;;;;0.27;0.23;;;;;;;9.95;95.78;94028.50;4394552;32;20207;-68
2022/09/29 00:46:51;;;;;;;0.13;0.13;;;;;;;9.95;95.63;94029.28;4313268;32;20192;-68
2022/09/29 00:49:22;;;;;;;0.27;0.27;;;;;;;9.94;95.79;94025.09;4347842;32;20199;-68
2022/09/29 00:52:17;;;;;;;0.23;0.23;;;;;;;10.02;94.88;94022.69;4390196;32;20193;-68
2022/09/29 00:55:21;;;;;;;0.10;0.10;;;;;;;9.93;95.34;94023.53;4385453;32;20283;-68
2022/09/29 00:58:04;;;;;;;0.00;0.00;;;;;;;9.93;95.84;94014.81;4385613;32;20231;-68
2022/09/29 01:00:30;;;;;;;0.30;0.30;;;;;;;9.80;95.84;94015.81;4386988;32;20234;-68
2022/09/29 01:03:03;;;;;;;0.20;0.20;;;;;;;9.82;96.17;94008.31;4401220;32;20192;-68
2022/09/29 01:05:57;;;;;;;0.10;0.10;;;;;;;9.83;95.89;94001.94;4383215;32;20196;-68
2022/09/29 01:08:36;;;;;;;0.20;0.20;;;;;;;9.76;95.90;93994.50;4381349;32;20273;-68
2022/09/29 01:11:03;;;;;;;0.00;0.00;;;;;;;9.75;95.19;93989.53;4383604;32;20228;-68
2022/09/29 01:13:32;;;;;;;0.50;0.50;;;;;;;9.65;95.50;93983.50;4413405;32;20192;-67
2022/09/29 01:15:58;;;;;;;0.20;0.20;;;;;;;9.69;96.05;93996.09;4361159;32;20199;-68
2022/09/29 01:18:25;;;;;;;3.07;0.50;;;;;;;9.88;95.41;94002.53;4381629;32;20259;-68
2022/09/29 01:21:25;;;;;;;0.13;0.13;;;;;;;9.65;95.93;93995.94;4380815;32;20276;-68
2022/09/29 01:24:26;;;;;;;0.10;0.10;;;;;;;9.63;96.38;93992.84;4396661;32;20268;-68
2022/09/29 01:26:57;;;;;;;0.43;0.43;;;;;;;9.44;97.35;93990.59;4355053;32;20269;-68
2022/09/29 01:29:59;;;;;;;0.30;0.30;;;;;;;9.69;96.88;93993.44;4396326;32;20188;-68
2022/09/29 01:33:10;;;;;;;0.00;0.00;;;;;;;9.71;96.35;94005.28;4375298;32;20184;-68
2022/09/29 01:36:05;;;;;;;0.10;0.10;;;;;;;9.85;95.79;93997.09;4360830;32;20199;-68
2022/09/29 01:38:41;;;;;;;0.10;0.10;;;;;;;9.81;96.21;94001.47;4381275;32;20196;-68
2022/09/29 01:41:12;;;;;;;0.47;0.47;;;;;;;9.76;96.31;94002.44;4400354;32;20231;-68
2022/09/29 01:43:45;;;;;;;0.13;0.13;;;;;;;9.59;96.16;93999.88;4396008;32;20277;-67
2022/09/29 01:46:26;;;;;;;0.10;0.10;;;;;;;9.27;97.30;94003.91;4391537;32;20199;-67
2022/09/29 01:48:55;;;;;;;0.20;0.20;;;;;;;9.17;98.14;93988.37;4385150;32;20180;-68
2022/09/29 01:51:43;;;;;;;0.00;0.00;;;;;;;9.36;97.56;93987.97;4404346;32;20275;-68
2022/09/29 01:54:17;;;;;;;0.10;0.10;;;;;;;9.67;96.80;93990.34;4363537;32;20310;-68
2022/09/29 01:56:50;;;;;;;0.10;0.10;;;;;;;9.80;96.33;93978.72;4400541;32;20255;-67
2022/09/29 01:59:34;;;;;;;0.10;0.10;;;;;;;9.61;96.07;93974.63;4393704;32;20234;-68
2022/09/29 02:02:07;;;;;;;0.10;0.10;;;;;;;9.77;95.95;93984.69;4367128;32;20209;-68
2022/09/29 02:04:45;;;;;;;0.07;0.07;;;;;;;9.67;95.75;93990.34;4412008;32;20189;-68
2022/09/29 02:07:21;;;;;;;0.33;0.33;;;;;;;9.60;96.12;93985.53;4396208;32;20271;-68
2022/09/29 02:09:55;;;;;;;0.00;0.00;;;;;;;9.36;96.74;93996.69;4387259;32;20196;-68
2022/09/29 02:12:26;;;;;;;0.27;0.27;;;;;;;9.51;97.10;93998.84;4385598;32;20270;-68
2022/09/29 02:14:54;;;;;;;0.30;0.30;;;;;;;9.68;96.22;93991.88;4387494;32;20192;-68
2022/09/29 02:17:34;;;;;;;0.30;0.30;;;;;;;9.60;96.13;93991.59;4369819;32;20197;-68
2022/09/29 02:20:01;;;;;;;0.30;0.30;;;;;;;9.55;96.28;93989.16;4335038;32;20188;-68
2022/09/29 02:22:28;;;;;;;0.13;0.13;;;;;;;9.29;96.89;93986.63;4368954;32;20288;-68
2022/09/29 02:25:00;;;;;;;0.10;0.10;;;;;;;9.42;97.04;93984.84;4389842;32;20211;-68
2022/09/29 02:27:28;;;;;;;0.50;0.50;;;;;;;9.48;96.80;93980.16;4392516;32;20184;-68
2022/09/29 02:29:58;;;;;;;0.70;0.70;;;;;;;9.36;97.01;93987.97;4400921;32;20295;-68
2022/09/29 02:32:28;;;;;;;0.27;0.27;;;;;;;9.44;96.96;93987.97;4367511;32;20184;-68
2022/09/29 02:34:55;;;;;;;0.10;0.10;;;;;;;9.72;96.24;93992.81;4384558;32;20272;-68
2022/09/29 02:37:35;;;;;;;0.10;0.10;;;;;;;9.66;96.15;93997.50;4366067;32;20294;-67
2022/09/29 02:40:42;;;;;;;0.20;0.20;;;;;;;9.63;96.25;93990.19;4388245;32;20315;-68
2022/09/29 02:43:44;;;;;;;0.20;0.20;;;;;;;9.50;96.77;93993.84;4329335;32;20289;-68
2022/09/29 02:46:49;;;;;;;0.20;0.20;;;;;;;9.59;96.53;94002.50;4378432;32;20192;-67
2022/09/29 02:49:49;;;;;;;0.00;0.00;;;;;;;9.43;97.29;94002.28;4360472;32;20293;-68
2022/09/29 02:52:56;;;;;;;0.20;0.20;;;;;;;9.49;96.83;94001.03;4374956;32;20276;-68
2022/09/29 02:55:36;;;;;;;0.23;0.23;;;;;;;9.52;96.23;93997.75;4381250;32;20398;-68
2022/09/29 02:58:26;;;;;;;0.43;0.37;;;;;;;9.35;96.67;93995.16;4398508;32;20189;-68
2022/09/29 03:00:56;;;;;;;0.07;0.07;;;;;;;9.50;96.08;93993.84;4353418;32;20371;-68
2022/09/29 03:03:23;;;;;;;0.03;0.03;;;;;;;9.35;96.58;93989.09;4382213;32;20286;-68
2022/09/29 03:05:53;;;;;;;0.00;0.00;;;;;;;9.38;96.84;93989.22;4401173;32;20200;-68
2022/09/29 03:08:18;;;;;;;0.60;0.60;;;;;;;9.41;96.82;93983.28;4386069;32;20290;-68
2022/09/29 03:10:45;;;;;;;0.40;0.40;;;;;;;9.44;96.38;93980.00;4391059;32;20197;-68
2022/09/29 03:13:11;;;;;;;0.20;0.20;;;;;;;9.41;96.55;93975.34;4381906;32;20207;-68
2022/09/29 03:15:37;;;;;;;0.10;0.10;;;;;;;9.37;96.59;93977.06;4386049;32;20311;-68
2022/09/29 03:18:03;;;;;;;0.00;0.00;;;;;;;9.44;96.30;93973.94;4397697;32;20229;-68
2022/09/29 03:20:29;;;;;;;0.23;0.23;;;;;;;9.39;96.65;93980.19;4376799;32;20193;-68
2022/09/29 03:22:56;;;;;;;0.00;0.00;;;;;;;9.50;96.29;93981.41;4387943;32;20241;-68
2022/09/29 03:25:23;;;;;;;1.30;0.70;;;;;;;9.50;95.97;93973.44;4385022;32;20292;-68
2022/09/29 03:27:49;;;;;;;0.17;0.17;;;;;;;9.20;96.66;93974.50;4381844;32;20355;-68
2022/09/29 03:30:18;;;;;;;0.40;0.33;;;;;;;9.46;96.25;93964.59;4387683;32;20192;-68
2022/09/29 03:32:44;;;;;;;0.10;0.10;;;;;;;9.67;95.54;93958.56;4349093;32;20200;-68
2022/09/29 03:35:12;;;;;;;0.40;0.40;;;;;;;9.65;95.80;93969.47;4382595;32;20196;-69
2022/09/29 03:37:38;;;;;;;0.53;0.53;;;;;;;9.70;95.04;93981.75;4417551;32;20430;-68
2022/09/29 03:40:05;;;;;;;0.27;0.27;;;;;;;9.62;95.38;93984.12;4370550;32;20231;-68
2022/09/29 03:42:31;;;;;;;0.37;0.37;;;;;;;9.69;95.57;93972.25;4398369;32;20212;-68
2022/09/29 03:44:58;;;;;;;0.07;0.07;;;;;;;9.82;94.96;93969.38;4394789;32;20349;-68
2022/09/29 03:47:24;;;;;;;0.20;0.20;;;;;;;9.77;95.22;93958.22;4396488;32;20191;-68
2022/09/29 03:49:51;;;;;;;0.30;0.30;;;;;;;9.63;95.78;93959.19;4391928;32;20196;-68
2022/09/29 03:52:19;;;;;;;0.30;0.30;;;;;;;9.57;95.65;93955.19;4379094;32;20350;-68
2022/09/29 03:54:45;;;;;;;0.20;0.20;;;;;;;9.46;96.49;93959.31;4376979;32;20275;-68
2022/09/29 03:57:11;;;;;;;0.30;0.30;;;;;;;9.47;96.44;93966.16;4385354;32;20283;-68
2022/09/29 03:59:37;;;;;;;0.30;0.30;;;;;;;9.63;96.79;93966.38;4381073;32;20434;-68
2022/09/29 04:02:03;;;;;;;0.17;0.17;;;;;;;9.58;96.81;93967.31;4369897;32;20230;-67
2022/09/29 04:04:30;;;;;;;0.40;0.40;;;;;;;9.60;96.86;93969.66;4389908;32;20294;-68
2022/09/29 04:06:55;;;;;;;0.27;0.20;;;;;;;9.54;96.52;93984.19;4391622;32;20284;-68
2022/09/29 04:09:22;;;;;;;0.30;0.30;;;;;;;9.80;95.08;93979.50;4377678;32;20325;-68
2022/09/29 04:11:50;;;;;;;0.37;0.37;;;;;;;9.78;94.95;93976.41;4392707;32;20188;-68
2022/09/29 04:14:16;;;;;;;0.17;0.17;;;;;;;9.51;95.33;93976.88;4402957;32;20214;-68
2022/09/29 04:16:42;;;;;;;0.10;0.10;;;;;;;9.74;94.86;93988.75;4399189;32;20306;-68
2022/09/29 04:19:08;;;;;;;0.37;0.37;;;;;;;9.59;94.85;93981.34;4381977;32;20292;-68
2022/09/29 04:21:34;;;;;;;0.20;0.20;;;;;;;9.75;94.92;93984.22;4392356;32;20192;-68
2022/09/29 04:24:01;;;;;;;0.43;0.30;;;;;;;9.82;94.58;93976.53;4403050;32;20192;-68
2022/09/29 04:26:26;;;;;;;0.10;0.10;;;;;;;9.89;94.06;93982.88;4383103;32;20268;-68
2022/09/29 04:28:54;;;;;;;1.60;0.70;;;;;;;9.75;94.82;93986.87;4394080;32;20371;-68
2022/09/29 04:31:21;;;;;;;0.23;0.23;;;;;;;9.60;94.99;93988.19;4391076;32;20260;-67
2022/09/29 04:33:48;;;;;;;0.10;0.10;;;;;;;9.71;95.09;93980.66;4380571;32;20184;-68
2022/09/29 04:36:14;;;;;;;0.40;0.40;;;;;;;9.74;95.30;93974.72;4403531;32;20192;-68
2022/09/29 04:38:40;;;;;;;0.67;0.67;;;;;;;9.69;95.33;93974.91;4401309;32;20279;-68
2022/09/29 04:41:06;;;;;;;1.60;1.03;;;;;;;9.71;95.06;93975.38;4389094;32;20242;-67
2022/09/29 04:43:33;;;;;;;0.77;0.47;;;;;;;9.67;95.36;93983.16;4392260;32;20196;-68
2022/09/29 04:46:07;;;;;;;0.50;0.50;;;;;;;9.71;94.93;93991.25;4392567;32;20208;-68
2022/09/29 04:48:34;;;;;;;0.33;0.33;;;;;;;9.81;94.40;93977.63;4348746;32;20203;-68
2022/09/29 04:51:00;;;;;;;1.63;1.53;;;;;;;9.69;94.66;93982.84;4379320;32;20215;-67
2022/09/29 04:53:26;;;;;;;1.03;1.03;;;;;;;9.68;94.61;93981.31;4361340;32;20276;-67
2022/09/29 04:55:53;;;;;;;1.47;1.40;;;;;;;9.64;94.67;93976.62;4405416;32;20394;-63
2022/09/29 04:58:19;;;;;;;0.97;0.90;;;;;;;9.72;94.53;93983.00;4391540;32;20238;-66
2022/09/29 05:00:46;;;;;;;0.83;0.83;;;;;;;9.76;94.20;93972.53;4400467;32;20326;-66
2022/09/29 05:03:12;;;;;;;1.17;0.83;;;;;;;9.65;95.05;93972.91;4359467;32;20208;-66
2022/09/29 05:05:39;;;;;;;0.40;0.40;;;;;;;9.52;95.63;93963.31;4364693;32;20319;-66
2022/09/29 05:08:05;;;;;;;0.40;0.40;;;;;;;9.60;95.19;93965.13;4360969;32;20204;-66
2022/09/29 05:10:34;;;;;;;0.30;0.30;;;;;;;9.47;95.87;93968.78;4404166;32;20236;-66
2022/09/29 05:12:59;;;;;;;0.40;0.40;;;;;;;9.57;95.48;93965.00;4384410;32;20188;-66
2022/09/29 05:15:25;;;;;;;0.37;0.37;;;;;;;9.53;96.15;93959.59;4380088;32;20196;-66
2022/09/29 05:17:50;;;;;;;0.23;0.17;;;;;;;9.66;95.66;93965.72;4352832;32;20200;-65
2022/09/29 05:20:16;;;;;;;0.77;0.77;;;;;;;9.70;95.10;93965.88;4366731;32;20255;-66
2022/09/29 05:22:42;;;;;;;0.50;0.50;;;;;;;9.65;95.43;93951.72;4369550;32;20216;-66
2022/09/29 05:25:11;;;;;;;0.67;0.67;;;;;;;9.77;94.87;93952.91;4380776;32;20374;-66
2022/09/29 05:27:36;;;;;;;1.33;0.90;;;;;;;9.75;94.26;93953.22;4388411;32;20292;-66
2022/09/29 05:30:03;;;;;;;1.13;1.03;;;;;;;9.77;93.89;93947.63;4367398;32;20289;-66
2022/09/29 05:32:29;;;;;;;0.50;0.50;;;;;;;9.81;93.63;93959.09;4368655;32;20185;-66
2022/09/29 05:34:56;;;;;;;0.50;0.50;;;;;;;9.95;93.28;93962.28;4386778;32;20196;-66
2022/09/29 05:37:23;;;;;;;1.47;0.93;;;;;;;9.82;93.57;93960.66;4395923;32;20446;-66
2022/09/29 05:39:48;;;;;;;8.77;1.10;;;;;;;9.84;93.51;93955.81;4364825;32;20189;-66
2022/09/29 05:42:14;;;;;;;0.40;0.40;;;;;;;9.87;93.63;93945.34;4374849;32;20188;-76
2022/09/29 05:44:41;;;;;;;2.10;1.30;;;;;;;9.81;93.39;93943.19;4383192;32;20210;-66
2022/09/29 05:47:07;;;;;;;0.63;0.57;;;;;;;10.48;100.00;93943.00;4399948;32;20252;-65
2022/09/29 05:49:32;;;;;;;1.27;1.17;;;;;;;10.81;100.00;93945.62;4366824;32;20193;-64
2022/09/29 05:51:59;;;;;;;0.80;0.80;;;;;;;10.95;100.00;93948.00;4359345;32;20194;-65
2022/09/29 05:54:27;;;;;;;1.67;0.77;;;;;;;11.28;100.00;93945.28;4382905;32;20210;-64
2022/09/29 05:56:53;;;;;;;0.50;0.50;;;;;;;11.37;97.81;93948.59;4385750;32;20293;-64
2022/09/29 05:59:19;;;;;;;0.37;0.37;;;;;;;11.53;97.90;93954.81;4389639;32;20199;-64
2022/09/29 06:01:44;;;;;;;0.47;0.47;;;;;;;11.72;97.73;93951.56;4378796;32;20192;-65
2022/09/29 06:04:10;;;;;;;0.50;0.50;;;;;;;11.46;93.08;93959.09;4385687;32;20200;-65
2022/09/29 06:06:39;;;;;;;0.60;0.60;;;;;;;11.85;97.30;93952.34;4336495;32;20197;-63
2022/09/29 06:09:06;;;;;;;0.40;0.40;;;;;;;11.82;96.15;93947.72;4390400;32;20180;-64
2022/09/29 06:11:34;;;;;;;0.47;0.33;;;;;;;11.69;95.11;93950.34;4402004;32;20181;-64
2022/09/29 06:14:01;;;;;;;0.47;0.47;;;;;;;11.70;94.00;93951.13;4417827;32;20234;-64
2022/09/29 06:16:30;;;;;;;0.83;0.63;;;;;;;11.83;95.44;93946.63;4403324;32;20207;-64
2022/09/29 06:18:58;;;;;;;0.53;0.53;;;;;;;11.54;93.96;93953.69;4387907;32;20188;-65
2022/09/29 06:21:26;;;;;;;0.60;0.60;;;;;;;11.60;93.61;93957.69;4407104;32;20218;-64
2022/09/29 06:23:57;;;;;;;0.70;0.70;;;;;;;11.74;92.22;93962.66;4403109;32;20323;-65
2022/09/29 06:26:24;;;;;;;0.70;0.70;;;;;;;12.00;92.91;93954.34;4396223;32;20183;-64
2022/09/29 06:28:51;;;;;;;0.57;0.57;;;;;;;11.98;90.65;93946.72;4390589;32;20200;-64
2022/09/29 06:31:19;;;;;;;0.60;0.60;;;;;;;11.92;91.52;93955.22;4392072;32;20245;-65
2022/09/29 06:33:45;;;;;;;0.40;0.40;;;;;;;12.11;90.17;93950.09;4361205;32;20226;-64
2022/09/29 06:39:12;;;;;;;1.10;1.07;;;;;;;11.87;90.91;93942.16;4391505;32;20247;-64
2022/09/29 06:41:38;;;;;;;0.63;0.63;;;;;;;12.03;90.37;93943.03;4391717;32;20261;-64
2022/09/29 06:44:03;;;;;;;0.50;0.50;;;;;;;11.92;90.87;93949.91;4384249;32;20192;-64
2022/09/29 06:46:29;;;;;;;0.50;0.50;;;;;;;11.98;91.47;93952.03;4401357;32;20220;-64
2022/09/29 06:48:56;;;;;;;0.90;0.90;;;;;;;11.59;85.61;93955.38;4374697;32;20280;-65
2022/09/29 06:51:36;;;;;;;0.53;0.53;;;;;;;11.46;85.86;93962.53;4404514;32;20532;-64
2022/09/29 06:54:01;;;;;;;2.13;1.07;;;;;;;11.36;86.66;93960.34;4410021;32;20179;-64
2022/09/29 06:56:28;;;;;;;0.63;0.63;;;;;;;11.27;87.84;93959.66;4377169;32;20206;-64
2022/09/29 06:58:54;;;;;;;0.57;0.57;;;;;;;11.19;86.95;93966.63;4382862;32;20189;-63
2022/09/29 07:01:20;;;;;;;0.63;0.63;;;;;;;11.23;87.87;93972.81;4395940;32;20202;-64
2022/09/29 07:03:47;;;;;;;0.93;0.93;;;;;;;11.27;87.56;93972.94;4384440;32;20188;-64
2022/09/29 07:06:13;;;;;;;0.40;0.40;;;;;;;11.12;87.52;93976.22;4369289;32;20301;-63
2022/09/29 07:08:39;;;;;;;1.23;1.13;;;;;;;11.12;87.35;93974.34;4400822;32;20192;-63
2022/09/29 07:11:09;;;;;;;0.57;0.57;;;;;;;11.12;87.39;93973.56;4390077;32;20196;-63
2022/09/29 07:13:37;;;;;;;0.20;0.20;;;;;;;11.16;87.09;93977.13;4367730;32;20188;-63
2022/09/29 07:16:08;;;;;;;0.47;0.47;;;;;;;11.09;87.54;93980.31;4380725;32;20248;-63
2022/09/29 07:18:39;;;;;;;0.47;0.47;;;;;;;10.84;87.67;93986.66;4392628;32;20239;-63
2022/09/29 07:21:08;;;;;;;0.57;0.57;;;;;;;10.68;88.14;93981.19;4370717;32;20196;-62
2022/09/29 07:23:35;;;;;;;1.27;0.90;;;;;;;10.60;88.02;93980.16;4390511;32;20191;-63
2022/09/29 07:26:04;;;;;;;0.27;0.27;;;;;;;10.57;88.68;93980.06;4398883;32;20196;-63
2022/09/29 07:28:30;;;;;;;0.30;0.30;;;;;;;10.38;89.44;93987.72;4382769;32;20196;-63
2022/09/29 07:31:02;;;;;;;0.43;0.43;;;;;;;10.25;89.94;93990.28;4361875;32;20188;-62
2022/09/29 07:33:30;;;;;;;0.20;0.20;;;;;;;10.37;89.29;93986.16;4326767;32;20192;-63
2022/09/29 07:35:59;;;;;;;0.80;0.80;;;;;;;10.33;89.47;93986.81;4363215;32;20279;-63
2022/09/29 07:38:50;;;;;;;1.43;1.00;;;;;;;10.28;89.98;93984.34;4389402;32;20195;-63
2022/09/29 07:41:20;;;;;;;0.80;0.80;;;;;;;10.25;91.04;93985.00;4379945;32;20218;-62
2022/09/29 07:43:46;;;;;;;0.80;0.80;;;;;;;10.42;90.93;93980.66;4363168;32;20228;-63
2022/09/29 07:46:14;;;;;;;0.73;0.73;;;;;;;10.48;91.64;93976.69;4364269;32;20214;-63
2022/09/29 07:48:39;;;;;;;0.67;0.67;;;;;;;10.49;91.37;93984.34;4380328;32;20234;-62
2022/09/29 07:51:27;;;;;;;0.40;0.37;;;;;;;10.71;90.35;93982.44;4405130;32;20189;-63
2022/09/29 07:53:53;;;;;;;0.47;0.47;;;;;;;10.77;90.50;93983.78;4388664;32;20257;-63
2022/09/29 07:56:21;;;;;;;0.30;0.30;;;;;;;10.83;88.89;93977.94;4405810;32;20203;-62
2022/09/29 07:58:49;;;;;;;0.50;0.27;;;;;;;11.04;88.38;93975.22;4362688;32;20200;-65
2022/09/29 08:01:16;;;;;;;0.30;0.30;;;;;;;11.08;88.56;93973.44;4348206;32;20192;-65
2022/09/29 08:03:47;;;;;;;0.50;0.50;;;;;;;11.17;88.53;93981.34;4392310;32;20209;-66
2022/09/29 08:06:13;;;;;;;0.50;0.50;;;;;;;11.18;88.39;93972.28;4383289;32;20196;-63
2022/09/29 08:08:41;;;;;;;0.67;0.50;;;;;;;11.19;88.44;93985.22;4401089;32;20191;-66
2022/09/29 08:11:09;;;;;;;0.07;0.07;;;;;;;11.47;87.49;93985.34;4379816;32;20201;-61
2022/09/29 08:13:37;;;;;;;0.37;0.37;;;;;;;11.61;86.18;93985.81;4379541;32;20188;-64
2022/09/29 08:16:04;;;;;;;0.23;0.23;;;;;;;11.42;85.88;93982.91;4398199;32;20184;-62
2022/09/29 08:18:34;;;;;;;0.10;0.10;;;;;;;11.33;85.67;93992.84;4415750;32;20188;-63
2022/09/29 08:21:01;;;;;;;0.33;0.33;;;;;;;11.05;86.29;93998.00;4362822;32;20194;-65
2022/09/29 08:23:27;;;;;;;0.30;0.30;;;;;;;11.11;86.29;93995.91;4382298;32;20196;-60
2022/09/29 08:26:03;;;;;;;0.70;0.70;;;;;;;11.20;86.08;94000.03;4344910;32;20308;-62
2022/09/29 08:28:30;;;;;;;0.53;0.53;;;;;;;11.28;86.08;93998.38;4378683;32;20209;-62
2022/09/29 08:30:55;;;;;;;0.20;0.20;;;;;;;11.21;86.32;94003.47;4402666;32;20188;-62
2022/09/29 08:33:22;;;;;;;0.30;0.30;;;;;;;11.41;85.39;93999.94;4376208;32;20203;-64
2022/09/29 08:35:56;;;;;;;0.30;0.30;;;;;;;11.22;85.61;94002.37;4391198;32;20216;-60
2022/09/29 08:38:24;;;;;;;0.30;0.30;;;;;;;11.40;86.42;94000.28;4386983;32;20218;-64
2022/09/29 08:40:53;;;;;;;0.83;0.50;;;;;;;11.46;86.24;94006.91;4373863;32;20184;-66
2022/09/29 08:43:37;;;;;;;0.10;0.10;;;;;;;11.37;84.98;94007.03;4371810;32;20243;-63
2022/09/29 08:46:16;;;;;;;0.27;0.27;;;;;;;11.41;85.99;94004.50;4389430;32;20196;-64
2022/09/29 08:48:44;;;;;;;0.07;0.07;;;;;;;11.38;85.32;93997.19;4382762;32;20259;-62
2022/09/29 08:51:27;;;;;;;0.20;0.20;;;;;;;11.47;85.16;94001.25;4378022;32;20251;-61
2022/09/29 08:53:56;;;;;;;0.10;0.10;;;;;;;11.53;84.99;94010.56;4376723;32;20302;-64
2022/09/29 08:56:23;;;;;;;0.10;0.10;;;;;;;11.69;85.09;94008.81;4394772;32;20189;-62
2022/09/29 08:58:55;;;;;;;0.10;0.10;;;;;;;11.45;85.76;94016.75;4369060;32;20232;-63
2022/09/29 09:01:29;;;;;;;0.17;0.17;;;;;;;11.65;86.01;94009.78;4395477;32;20184;-63
2022/09/29 09:04:31;;;;;;;0.10;0.10;;;;;;;11.59;84.23;94009.25;4396303;32;20184;-62
2022/09/29 09:07:13;;;;;;;0.00;0.00;;;;;;;11.57;83.42;94016.78;4354556;32;20195;-68
2022/09/29 09:10:09;;;;;;;0.00;0.00;;;;;;;11.56;83.85;94020.53;4378788;32;20240;-65
2022/09/29 09:12:53;;;;;;;0.10;0.10;;;;;;;11.62;84.53;94013.91;4378214;32;20195;-63
2022/09/29 09:15:33;;;;;;;0.00;0.00;;;;;;;11.78;84.66;94021.25;4391682;32;20268;-63
2022/09/29 09:18:37;;;;;;;0.23;0.23;;;;;;;11.77;84.53;94019.69;4411226;32;20210;-61
2022/09/29 09:21:20;;;;;;;0.10;0.10;;;;;;;11.74;85.24;94012.34;4383203;32;20200;-64
2022/09/29 09:24:04;;;;;;;0.07;0.07;;;;;;;11.88;83.90;94026.88;4390475;32;20211;-62
2022/09/29 09:26:41;;;;;;;0.10;0.10;;;;;;;12.12;83.54;94025.31;4379721;32;20196;-65
2022/09/29 09:29:20;;;;;;;0.30;0.30;;;;;;;11.97;82.96;94035.53;4392697;32;20223;-63
2022/09/29 09:31:56;;;;;;;0.27;0.27;;;;;;;12.05;82.31;94036.53;4394990;32;20255;-65
2022/09/29 09:34:42;;;;;;;0.27;0.27;;;;;;;12.10;82.37;94038.16;4387804;32;20210;-63
2022/09/29 09:37:27;;;;;;;0.77;0.40;;;;;;;12.05;83.04;94041.84;4388948;32;20263;-65
2022/09/29 09:40:15;;;;;;;0.00;0.00;;;;;;;12.12;82.55;94042.03;4388212;32;20260;-62
2022/09/29 09:42:45;;;;;;;0.30;0.30;;;;;;;12.05;82.96;94039.19;4384122;32;20192;-64
2022/09/29 09:45:33;;;;;;;0.20;0.20;;;;;;;12.02;83.16;94032.66;4386693;32;20286;-66
2022/09/29 09:48:12;;;;;;;0.20;0.20;;;;;;;12.01;83.06;94040.94;4375016;32;20205;-63
2022/09/29 09:50:41;;;;;;;0.13;0.13;;;;;;;12.00;81.81;94042.84;4406186;32;20246;-62
2022/09/29 09:53:27;;;;;;;0.10;0.10;;;;;;;12.10;82.03;94033.63;4380071;32;20275;-66
2022/09/29 09:56:16;;;;;;;0.20;0.20;;;;;;;12.11;81.56;94035.16;4387299;32;20191;-67
2022/09/29 09:59:02;;;;;;;0.17;0.17;;;;;;;12.21;80.81;94034.72;4386569;32;20183;-65
2022/09/29 10:01:28;;;;;;;0.20;0.20;;;;;;;12.24;81.86;94039.38;4392806;32;20256;-67
2022/09/29 10:03:54;;;;;;;0.10;0.10;;;;;;;12.21;82.42;94040.03;4388498;32;20176;-66
2022/09/29 10:06:22;;;;;;;0.10;0.10;;;;;;;12.16;81.13;94042.91;4399789;32;20188;-63
2022/09/29 10:08:50;;;;;;;0.00;0.00;;;;;;;11.97;81.31;94040.84;4391449;32;20263;-65
2022/09/29 10:11:25;;;;;;;0.00;0.00;;;;;;;11.72;81.01;94039.25;4387579;32;20185;-65
2022/09/29 10:14:16;;;;;;;0.00;0.00;;;;;;;11.76;81.83;94042.03;4387912;32;20193;-65
2022/09/29 10:16:51;;;;;;;0.20;0.20;;;;;;;11.93;80.55;94045.25;4382284;32;20199;-65
2022/09/29 10:19:40;;;;;;;0.20;0.20;;;;;;;12.01;80.80;94041.72;4377509;32;20292;-64
2022/09/29 10:22:17;;;;;;;0.20;0.20;;;;;;;12.00;81.17;94040.19;4381016;32;20234;-64
2022/09/29 10:24:44;;;;;;;0.10;0.10;;;;;;;11.93;81.01;94045.25;4376682;32;20196;-64
2022/09/29 10:27:17;;;;;;;0.20;0.20;;;;;;;12.02;80.29;94051.25;4358288;32;20205;-64
2022/09/29 10:29:51;;;;;;;0.00;0.00;;;;;;;11.82;80.98;94044.16;4313995;32;20219;-64
2022/09/29 10:32:36;;;;;;;0.40;0.23;;;;;;;11.91;79.77;94047.47;4360292;32;20217;-64
2022/09/29 10:35:47;;;;;;;0.20;0.20;;;;;;;11.74;79.76;94057.50;4378426;32;20222;-64
2022/09/29 10:38:26;;;;;;;0.30;0.30;;;;;;;11.84;79.46;94046.50;4385510;32;20279;-65
2022/09/29 10:41:02;;;;;;;0.20;0.20;;;;;;;11.96;80.49;94054.47;4391682;32;20206;-64
2022/09/29 10:43:33;;;;;;;0.40;0.40;;;;;;;12.02;80.79;94059.22;4379437;32;20184;-64
2022/09/29 10:45:58;;;;;;;0.30;0.30;;;;;;;11.82;82.15;94060.09;4378298;32;20283;-65
2022/09/29 10:48:26;;;;;;;0.40;0.40;;;;;;;12.12;81.79;94060.66;4392877;32;20204;-64
2022/09/29 10:51:03;;;;;;;0.43;0.43;;;;;;;12.03;81.90;94060.00;4371537;32;20202;-64
2022/09/29 10:53:40;;;;;;;0.30;0.30;;;;;;;12.10;81.24;94062.06;4362081;32;20196;-64
2022/09/29 10:56:16;;;;;;;0.30;0.10;;;;;;;12.01;81.17;94060.31;4374092;32;20188;-64
2022/09/29 10:58:50;;;;;;;0.00;0.00;;;;;;;12.02;82.09;94063.75;4372948;32;20199;-64
2022/09/29 11:01:20;;;;;;;0.20;0.20;;;;;;;12.01;82.08;94056.91;4389619;32;20195;-64
2022/09/29 11:03:50;;;;;;;0.10;0.10;;;;;;;11.94;81.37;94056.66;4399138;32;20212;-64
2022/09/29 11:06:26;;;;;;;0.10;0.10;;;;;;;12.03;81.92;94057.34;4403801;32;20199;-64
2022/09/29 11:09:04;;;;;;;0.40;0.40;;;;;;;12.11;83.17;94058.31;4380523;32;20196;-64
2022/09/29 11:11:33;;;;;;;0.30;0.30;;;;;;;12.15;82.78;94067.19;4394073;32;20198;-64
2022/09/29 11:13:59;;;;;;;0.10;0.10;;;;;;;12.17;82.15;94071.06;4379214;32;20188;-64
2022/09/29 11:16:26;;;;;;;0.10;0.10;;;;;;;12.08;81.34;94067.72;4356814;32;20192;-64
2022/09/29 11:18:56;;;;;;;0.10;0.10;;;;;;;12.08;79.95;94069.59;4395910;32;20211;-64
2022/09/29 11:21:35;;;;;;;0.50;0.50;;;;;;;12.11;80.43;94071.59;4368821;32;20202;-64
2022/09/29 11:24:40;;;;;;;1.07;1.07;;;;;;;12.12;80.65;94073.16;4381590;32;20238;-64
2022/09/29 11:27:32;;;;;;;0.10;0.10;;;;;;;12.19;79.91;94073.38;4357027;32;20188;-64
2022/09/29 11:30:47;;;;;;;0.00;0.00;;;;;;;11.98;80.09;94074.28;4366313;32;20189;-64
2022/09/29 11:33:41;;;;;;;0.00;0.00;;;;;;;11.92;81.02;94075.59;4334655;32;20179;-63
2022/09/29 11:36:12;;;;;;;0.37;0.37;;;;;;;11.87;82.13;94083.00;4378913;32;20207;-64
2022/09/29 11:39:01;;;;;;;0.30;0.30;;;;;;;12.00;80.50;94076.59;4340120;32;20276;-65
2022/09/29 11:41:44;;;;;;;0.17;0.17;;;;;;;12.00;81.35;94081.94;4367692;32;20195;-66
2022/09/29 11:44:32;;;;;;;0.27;0.27;;;;;;;12.03;80.73;94087.34;4367868;32;20200;-65
2022/09/29 11:47:13;;;;;;;0.10;0.10;;;;;;;11.94;79.39;94088.56;4354104;32;20196;-65
2022/09/29 11:50:13;;;;;;;0.20;0.20;;;;;;;11.84;80.63;94086.34;4408054;32;20215;-65
2022/09/29 11:53:18;;;;;;;0.30;0.30;;;;;;;11.99;82.05;94091.00;4346474;32;20212;-65
2022/09/29 11:56:04;;;;;;;0.40;0.40;;;;;;;12.06;84.00;94091.22;4346860;32;20214;-65
2022/09/29 11:59:14;;;;;;;0.23;0.23;;;;;;;12.06;83.96;94091.22;4380102;32;20264;-65
2022/09/29 12:01:46;;;;;;;0.40;0.40;;;;;;;12.09;81.74;94097.75;4377270;32;20262;-65
2022/09/29 12:04:39;;;;;;;0.37;0.37;;;;;;;11.75;81.81;94099.69;4396027;32;20180;-64
2022/09/29 12:07:20;;;;;;;0.47;0.47;;;;;;;11.83;82.49;94093.53;4368741;32;20202;-65
2022/09/29 12:10:05;;;;;;;0.07;0.07;;;;;;;11.90;83.67;94085.78;4399254;32;20195;-64